sensor_id;sensor_type;location;lat;lon;timestamp;P1;durP1;ratioP1;P2;durP2;ratioP2
77798;SDS011;66989;50.426;15.352;2024-03-08T00:02:22;30.38;;;17.02;;
77798;SDS011;66989;50.426;15.352;2024-03-08T00:04:48;31.00;;;15.23;;
77798;SDS011;66989;50.426;15.352;2024-03-08T00:07:13;29.93;;;15.07;;
77798;SDS011;66989;50.426;15.352;2024-03-08T00:09:38;25.73;;;15.33;;
77798;SDS011;66989;50.426;15.352;2024-03-08T00:12:04;27.95;;;15.57;;
77798;SDS011;66989;50.426;15.352;2024-03-08T00:14:29;28.85;;;14.80;;
77798;SDS011;66989;50.426;15.352;2024-03-08T00:16:55;29.10;;;14.43;;
77798;SDS011;66989;50.426;15.352;2024-03-08T00:19:20;27.97;;;15.00;;
77798;SDS011;66989;50.426;15.352;2024-03-08T00:21:45;25.13;;;15.10;;
77798;SDS011;66989;50.426;15.352;2024-03-08T00:24:11;30.48;;;16.80;;
77798;SDS011;66989;50.426;15.352;2024-03-08T00:26:37;31.33;;;15.25;;
77798;SDS011;66989;50.426;15.352;2024-03-08T00:29:02;25.55;;;14.30;;
77798;SDS011;66989;50.426;15.352;2024-03-08T00:31:28;31.45;;;16.05;;
77798;SDS011;66989;50.426;15.352;2024-03-08T00:33:55;33.65;;;17.52;;
77798;SDS011;66989;50.426;15.352;2024-03-08T00:36:21;35.97;;;20.20;;
77798;SDS011;66989;50.426;15.352;2024-03-08T00:38:47;29.60;;;15.68;;
77798;SDS011;66989;50.426;15.352;2024-03-08T00:41:12;32.70;;;16.13;;
77798;SDS011;66989;50.426;15.352;2024-03-08T00:43:38;32.58;;;16.70;;
77798;SDS011;66989;50.426;15.352;2024-03-08T00:46:04;31.60;;;16.75;;
77798;SDS011;66989;50.426;15.352;2024-03-08T00:48:30;30.13;;;16.43;;
77798;SDS011;66989;50.426;15.352;2024-03-08T00:50:56;29.35;;;16.85;;
77798;SDS011;66989;50.426;15.352;2024-03-08T00:53:21;31.52;;;18.13;;
77798;SDS011;66989;50.426;15.352;2024-03-08T00:55:47;31.27;;;17.45;;
77798;SDS011;66989;50.426;15.352;2024-03-08T00:58:12;35.83;;;19.13;;
77798;SDS011;66989;50.426;15.352;2024-03-08T01:00:38;31.83;;;15.63;;
77798;SDS011;66989;50.426;15.352;2024-03-08T01:03:04;32.15;;;18.33;;
77798;SDS011;66989;50.426;15.352;2024-03-08T01:05:30;35.78;;;18.15;;
77798;SDS011;66989;50.426;15.352;2024-03-08T01:07:55;31.35;;;17.13;;
77798;SDS011;66989;50.426;15.352;2024-03-08T01:10:21;32.20;;;16.08;;
77798;SDS011;66989;50.426;15.352;2024-03-08T01:12:46;31.83;;;16.52;;
77798;SDS011;66989;50.426;15.352;2024-03-08T01:15:12;35.85;;;19.02;;
77798;SDS011;66989;50.426;15.352;2024-03-08T01:17:37;29.45;;;16.38;;
77798;SDS011;66989;50.426;15.352;2024-03-08T01:20:03;33.63;;;17.92;;
77798;SDS011;66989;50.426;15.352;2024-03-08T01:22:29;33.17;;;17.77;;
77798;SDS011;66989;50.426;15.352;2024-03-08T01:24:55;32.25;;;17.50;;
77798;SDS011;66989;50.426;15.352;2024-03-08T01:27:21;34.97;;;18.23;;
77798;SDS011;66989;50.426;15.352;2024-03-08T01:29:46;34.33;;;17.73;;
77798;SDS011;66989;50.426;15.352;2024-03-08T01:32:12;34.83;;;17.00;;
77798;SDS011;66989;50.426;15.352;2024-03-08T01:34:37;30.77;;;17.95;;
77798;SDS011;66989;50.426;15.352;2024-03-08T01:37:02;32.33;;;17.63;;
77798;SDS011;66989;50.426;15.352;2024-03-08T01:39:28;32.22;;;17.23;;
77798;SDS011;66989;50.426;15.352;2024-03-08T01:41:53;31.43;;;16.47;;
77798;SDS011;66989;50.426;15.352;2024-03-08T01:44:19;29.17;;;16.70;;
77798;SDS011;66989;50.426;15.352;2024-03-08T01:46:45;30.45;;;17.17;;
77798;SDS011;66989;50.426;15.352;2024-03-08T01:49:12;32.50;;;16.40;;
77798;SDS011;66989;50.426;15.352;2024-03-08T01:51:39;34.00;;;16.63;;
77798;SDS011;66989;50.426;15.352;2024-03-08T01:54:05;30.80;;;16.85;;
77798;SDS011;66989;50.426;15.352;2024-03-08T01:56:32;29.20;;;15.75;;
77798;SDS011;66989;50.426;15.352;2024-03-08T01:58:58;31.75;;;16.02;;
77798;SDS011;66989;50.426;15.352;2024-03-08T02:01:25;32.50;;;15.95;;
77798;SDS011;66989;50.426;15.352;2024-03-08T02:03:50;32.72;;;17.63;;
77798;SDS011;66989;50.426;15.352;2024-03-08T02:06:16;30.90;;;17.42;;
77798;SDS011;66989;50.426;15.352;2024-03-08T02:08:42;35.08;;;18.50;;
77798;SDS011;66989;50.426;15.352;2024-03-08T02:11:11;33.63;;;17.17;;
77798;SDS011;66989;50.426;15.352;2024-03-08T02:13:37;35.25;;;18.88;;
77798;SDS011;66989;50.426;15.352;2024-03-08T02:16:02;33.92;;;17.42;;
77798;SDS011;66989;50.426;15.352;2024-03-08T02:18:29;32.03;;;16.70;;
77798;SDS011;66989;50.426;15.352;2024-03-08T02:20:56;30.50;;;16.85;;
77798;SDS011;66989;50.426;15.352;2024-03-08T02:23:23;27.88;;;15.35;;
77798;SDS011;66989;50.426;15.352;2024-03-08T02:25:52;36.22;;;18.13;;
77798;SDS011;66989;50.426;15.352;2024-03-08T02:28:20;32.03;;;16.40;;
77798;SDS011;66989;50.426;15.352;2024-03-08T02:30:46;31.40;;;17.70;;
77798;SDS011;66989;50.426;15.352;2024-03-08T02:33:14;31.98;;;17.70;;
77798;SDS011;66989;50.426;15.352;2024-03-08T02:35:42;34.08;;;18.48;;
77798;SDS011;66989;50.426;15.352;2024-03-08T02:38:11;33.97;;;18.38;;
77798;SDS011;66989;50.426;15.352;2024-03-08T02:40:44;33.42;;;18.98;;
77798;SDS011;66989;50.426;15.352;2024-03-08T02:43:14;35.28;;;18.52;;
77798;SDS011;66989;50.426;15.352;2024-03-08T02:45:42;38.05;;;17.48;;
77798;SDS011;66989;50.426;15.352;2024-03-08T02:48:09;32.42;;;18.33;;
77798;SDS011;66989;50.426;15.352;2024-03-08T02:50:34;35.03;;;17.80;;
77798;SDS011;66989;50.426;15.352;2024-03-08T02:53:01;33.05;;;16.83;;
77798;SDS011;66989;50.426;15.352;2024-03-08T02:55:26;33.15;;;16.80;;
77798;SDS011;66989;50.426;15.352;2024-03-08T02:57:52;28.97;;;16.03;;
77798;SDS011;66989;50.426;15.352;2024-03-08T03:00:19;36.78;;;16.55;;
77798;SDS011;66989;50.426;15.352;2024-03-08T03:02:46;31.33;;;16.67;;
77798;SDS011;66989;50.426;15.352;2024-03-08T03:05:12;31.27;;;17.92;;
77798;SDS011;66989;50.426;15.352;2024-03-08T03:07:37;32.20;;;18.30;;
77798;SDS011;66989;50.426;15.352;2024-03-08T03:10:03;31.63;;;16.77;;
77798;SDS011;66989;50.426;15.352;2024-03-08T03:12:30;32.35;;;17.40;;
77798;SDS011;66989;50.426;15.352;2024-03-08T03:14:56;32.60;;;16.40;;
77798;SDS011;66989;50.426;15.352;2024-03-08T03:17:25;29.67;;;17.45;;
77798;SDS011;66989;50.426;15.352;2024-03-08T03:19:51;32.05;;;16.60;;
77798;SDS011;66989;50.426;15.352;2024-03-08T03:22:17;31.60;;;16.40;;
77798;SDS011;66989;50.426;15.352;2024-03-08T03:24:43;30.58;;;17.08;;
77798;SDS011;66989;50.426;15.352;2024-03-08T03:27:09;33.08;;;16.40;;
77798;SDS011;66989;50.426;15.352;2024-03-08T03:29:46;31.77;;;16.25;;
77798;SDS011;66989;50.426;15.352;2024-03-08T03:32:12;33.65;;;17.80;;
77798;SDS011;66989;50.426;15.352;2024-03-08T03:34:38;34.90;;;17.45;;
77798;SDS011;66989;50.426;15.352;2024-03-08T03:37:04;34.78;;;18.90;;
77798;SDS011;66989;50.426;15.352;2024-03-08T03:39:32;34.47;;;18.52;;
77798;SDS011;66989;50.426;15.352;2024-03-08T03:41:57;32.92;;;16.90;;
77798;SDS011;66989;50.426;15.352;2024-03-08T03:44:23;28.92;;;15.98;;
77798;SDS011;66989;50.426;15.352;2024-03-08T03:46:49;34.28;;;16.67;;
77798;SDS011;66989;50.426;15.352;2024-03-08T03:49:15;30.20;;;15.95;;
77798;SDS011;66989;50.426;15.352;2024-03-08T03:51:42;31.20;;;17.35;;
77798;SDS011;66989;50.426;15.352;2024-03-08T03:54:07;32.53;;;16.58;;
77798;SDS011;66989;50.426;15.352;2024-03-08T03:56:33;32.88;;;17.50;;
77798;SDS011;66989;50.426;15.352;2024-03-08T03:58:58;38.40;;;17.73;;
77798;SDS011;66989;50.426;15.352;2024-03-08T04:01:23;29.15;;;16.65;;
77798;SDS011;66989;50.426;15.352;2024-03-08T04:03:49;31.88;;;16.23;;
77798;SDS011;66989;50.426;15.352;2024-03-08T04:06:14;32.10;;;16.30;;
77798;SDS011;66989;50.426;15.352;2024-03-08T04:08:40;30.45;;;17.02;;
77798;SDS011;66989;50.426;15.352;2024-03-08T04:11:06;35.67;;;18.58;;
77798;SDS011;66989;50.426;15.352;2024-03-08T04:13:33;35.28;;;18.27;;
77798;SDS011;66989;50.426;15.352;2024-03-08T04:15:59;32.47;;;15.57;;
77798;SDS011;66989;50.426;15.352;2024-03-08T04:18:24;38.78;;;19.73;;
77798;SDS011;66989;50.426;15.352;2024-03-08T04:20:50;31.58;;;17.27;;
77798;SDS011;66989;50.426;15.352;2024-03-08T04:23:16;32.33;;;18.47;;
77798;SDS011;66989;50.426;15.352;2024-03-08T04:25:42;35.05;;;17.95;;
77798;SDS011;66989;50.426;15.352;2024-03-08T04:28:08;32.15;;;18.23;;
77798;SDS011;66989;50.426;15.352;2024-03-08T04:30:37;36.40;;;20.00;;
77798;SDS011;66989;50.426;15.352;2024-03-08T04:33:04;30.13;;;16.65;;
77798;SDS011;66989;50.426;15.352;2024-03-08T04:35:31;33.53;;;17.77;;
77798;SDS011;66989;50.426;15.352;2024-03-08T04:37:56;33.72;;;17.30;;
77798;SDS011;66989;50.426;15.352;2024-03-08T04:40:22;39.33;;;18.13;;
77798;SDS011;66989;50.426;15.352;2024-03-08T04:42:48;33.85;;;19.38;;
77798;SDS011;66989;50.426;15.352;2024-03-08T04:45:17;32.58;;;17.58;;
77798;SDS011;66989;50.426;15.352;2024-03-08T04:47:42;40.83;;;19.35;;
77798;SDS011;66989;50.426;15.352;2024-03-08T04:50:08;36.30;;;17.95;;
77798;SDS011;66989;50.426;15.352;2024-03-08T04:52:36;33.30;;;16.77;;
77798;SDS011;66989;50.426;15.352;2024-03-08T04:55:02;33.58;;;17.50;;
77798;SDS011;66989;50.426;15.352;2024-03-08T04:57:30;36.08;;;17.60;;
77798;SDS011;66989;50.426;15.352;2024-03-08T04:59:55;32.30;;;16.58;;
77798;SDS011;66989;50.426;15.352;2024-03-08T05:02:21;35.87;;;17.37;;
77798;SDS011;66989;50.426;15.352;2024-03-08T05:04:47;31.55;;;18.90;;
77798;SDS011;66989;50.426;15.352;2024-03-08T05:07:13;35.75;;;17.83;;
77798;SDS011;66989;50.426;15.352;2024-03-08T05:09:38;31.00;;;17.13;;
77798;SDS011;66989;50.426;15.352;2024-03-08T05:12:05;40.13;;;19.33;;
77798;SDS011;66989;50.426;15.352;2024-03-08T05:14:31;34.42;;;17.48;;
77798;SDS011;66989;50.426;15.352;2024-03-08T05:16:56;37.22;;;18.67;;
77798;SDS011;66989;50.426;15.352;2024-03-08T05:19:21;43.85;;;19.40;;
77798;SDS011;66989;50.426;15.352;2024-03-08T05:21:47;40.40;;;20.38;;
77798;SDS011;66989;50.426;15.352;2024-03-08T05:24:13;39.38;;;19.83;;
77798;SDS011;66989;50.426;15.352;2024-03-08T05:26:42;39.80;;;19.83;;
77798;SDS011;66989;50.426;15.352;2024-03-08T05:29:08;39.85;;;19.25;;
77798;SDS011;66989;50.426;15.352;2024-03-08T05:31:47;37.78;;;19.05;;
77798;SDS011;66989;50.426;15.352;2024-03-08T05:34:20;36.15;;;19.42;;
77798;SDS011;66989;50.426;15.352;2024-03-08T05:36:46;36.88;;;19.35;;
77798;SDS011;66989;50.426;15.352;2024-03-08T05:39:14;34.40;;;17.95;;
77798;SDS011;66989;50.426;15.352;2024-03-08T05:41:40;32.13;;;18.23;;
77798;SDS011;66989;50.426;15.352;2024-03-08T05:44:06;32.08;;;17.50;;
77798;SDS011;66989;50.426;15.352;2024-03-08T05:46:32;33.30;;;17.45;;
77798;SDS011;66989;50.426;15.352;2024-03-08T05:48:58;39.85;;;20.48;;
77798;SDS011;66989;50.426;15.352;2024-03-08T05:51:30;35.83;;;17.92;;
77798;SDS011;66989;50.426;15.352;2024-03-08T05:53:56;36.92;;;19.13;;
77798;SDS011;66989;50.426;15.352;2024-03-08T05:56:21;34.22;;;19.33;;
77798;SDS011;66989;50.426;15.352;2024-03-08T05:58:48;33.95;;;17.48;;
77798;SDS011;66989;50.426;15.352;2024-03-08T06:01:15;33.42;;;18.40;;
77798;SDS011;66989;50.426;15.352;2024-03-08T06:03:41;33.85;;;16.85;;
77798;SDS011;66989;50.426;15.352;2024-03-08T06:06:11;29.38;;;16.60;;
77798;SDS011;66989;50.426;15.352;2024-03-08T06:08:37;31.67;;;16.35;;
77798;SDS011;66989;50.426;15.352;2024-03-08T06:11:03;32.75;;;17.02;;
77798;SDS011;66989;50.426;15.352;2024-03-08T06:13:29;31.80;;;17.00;;
77798;SDS011;66989;50.426;15.352;2024-03-08T06:15:56;37.33;;;17.58;;
77798;SDS011;66989;50.426;15.352;2024-03-08T06:18:21;30.33;;;16.45;;
77798;SDS011;66989;50.426;15.352;2024-03-08T06:20:47;32.47;;;17.23;;
77798;SDS011;66989;50.426;15.352;2024-03-08T06:23:12;36.65;;;16.67;;
77798;SDS011;66989;50.426;15.352;2024-03-08T06:25:39;33.50;;;17.65;;
77798;SDS011;66989;50.426;15.352;2024-03-08T06:28:04;35.35;;;17.20;;
77798;SDS011;66989;50.426;15.352;2024-03-08T06:30:30;31.98;;;17.10;;
77798;SDS011;66989;50.426;15.352;2024-03-08T06:32:56;33.22;;;18.58;;
77798;SDS011;66989;50.426;15.352;2024-03-08T06:35:21;31.33;;;16.95;;
77798;SDS011;66989;50.426;15.352;2024-03-08T06:37:47;30.05;;;17.13;;
77798;SDS011;66989;50.426;15.352;2024-03-08T06:40:13;33.00;;;17.17;;
77798;SDS011;66989;50.426;15.352;2024-03-08T06:42:39;29.98;;;17.50;;
77798;SDS011;66989;50.426;15.352;2024-03-08T06:45:05;28.80;;;15.98;;
77798;SDS011;66989;50.426;15.352;2024-03-08T06:47:31;33.38;;;16.17;;
77798;SDS011;66989;50.426;15.352;2024-03-08T06:49:57;33.33;;;16.23;;
77798;SDS011;66989;50.426;15.352;2024-03-08T06:52:22;31.90;;;16.48;;
77798;SDS011;66989;50.426;15.352;2024-03-08T06:54:48;31.48;;;17.23;;
77798;SDS011;66989;50.426;15.352;2024-03-08T06:57:14;33.65;;;16.55;;
77798;SDS011;66989;50.426;15.352;2024-03-08T06:59:41;30.95;;;16.73;;
77798;SDS011;66989;50.426;15.352;2024-03-08T07:02:07;27.17;;;16.02;;
77798;SDS011;66989;50.426;15.352;2024-03-08T07:07:03;32.58;;;16.45;;
77798;SDS011;66989;50.426;15.352;2024-03-08T07:09:29;26.13;;;14.75;;
77798;SDS011;66989;50.426;15.352;2024-03-08T07:11:54;32.13;;;15.77;;
77798;SDS011;66989;50.426;15.352;2024-03-08T07:14:22;25.92;;;14.95;;
77798;SDS011;66989;50.426;15.352;2024-03-08T07:16:49;30.75;;;15.07;;
77798;SDS011;66989;50.426;15.352;2024-03-08T07:19:15;25.85;;;14.15;;
77798;SDS011;66989;50.426;15.352;2024-03-08T07:21:41;28.85;;;16.35;;
77798;SDS011;66989;50.426;15.352;2024-03-08T07:24:07;27.30;;;16.05;;
77798;SDS011;66989;50.426;15.352;2024-03-08T07:26:42;24.98;;;14.68;;
77798;SDS011;66989;50.426;15.352;2024-03-08T07:29:07;25.17;;;16.10;;
77798;SDS011;66989;50.426;15.352;2024-03-08T07:31:33;25.43;;;14.37;;
77798;SDS011;66989;50.426;15.352;2024-03-08T07:34:07;28.63;;;15.68;;
77798;SDS011;66989;50.426;15.352;2024-03-08T07:36:33;25.60;;;13.95;;
77798;SDS011;66989;50.426;15.352;2024-03-08T07:39:00;25.00;;;14.80;;
77798;SDS011;66989;50.426;15.352;2024-03-08T07:41:25;29.13;;;15.68;;
77798;SDS011;66989;50.426;15.352;2024-03-08T07:43:51;22.58;;;13.80;;
77798;SDS011;66989;50.426;15.352;2024-03-08T07:46:17;32.25;;;16.00;;
77798;SDS011;66989;50.426;15.352;2024-03-08T07:48:43;35.47;;;14.27;;
77798;SDS011;66989;50.426;15.352;2024-03-08T07:51:10;20.42;;;13.13;;
77798;SDS011;66989;50.426;15.352;2024-03-08T07:53:37;26.27;;;14.13;;
77798;SDS011;66989;50.426;15.352;2024-03-08T07:56:03;45.67;;;16.13;;
77798;SDS011;66989;50.426;15.352;2024-03-08T07:58:30;24.55;;;12.45;;
77798;SDS011;66989;50.426;15.352;2024-03-08T08:00:55;24.08;;;14.02;;
77798;SDS011;66989;50.426;15.352;2024-03-08T08:03:21;28.75;;;12.98;;
77798;SDS011;66989;50.426;15.352;2024-03-08T08:05:46;21.42;;;12.80;;
77798;SDS011;66989;50.426;15.352;2024-03-08T08:08:14;21.08;;;11.73;;
77798;SDS011;66989;50.426;15.352;2024-03-08T08:10:40;21.42;;;13.00;;
77798;SDS011;66989;50.426;15.352;2024-03-08T08:13:05;24.45;;;13.05;;
77798;SDS011;66989;50.426;15.352;2024-03-08T08:15:31;20.55;;;13.35;;
77798;SDS011;66989;50.426;15.352;2024-03-08T08:17:56;23.17;;;13.40;;
77798;SDS011;66989;50.426;15.352;2024-03-08T08:20:21;21.17;;;12.98;;
77798;SDS011;66989;50.426;15.352;2024-03-08T08:22:48;20.45;;;11.48;;
77798;SDS011;66989;50.426;15.352;2024-03-08T08:25:13;21.60;;;13.25;;
77798;SDS011;66989;50.426;15.352;2024-03-08T08:27:45;19.10;;;11.65;;
77798;SDS011;66989;50.426;15.352;2024-03-08T08:30:11;24.33;;;12.70;;
77798;SDS011;66989;50.426;15.352;2024-03-08T08:32:37;21.77;;;11.80;;
77798;SDS011;66989;50.426;15.352;2024-03-08T08:35:04;24.38;;;12.68;;
77798;SDS011;66989;50.426;15.352;2024-03-08T08:37:32;22.63;;;13.13;;
77798;SDS011;66989;50.426;15.352;2024-03-08T08:39:58;21.25;;;11.88;;
77798;SDS011;66989;50.426;15.352;2024-03-08T08:42:30;19.20;;;11.43;;
77798;SDS011;66989;50.426;15.352;2024-03-08T08:44:55;21.98;;;11.63;;
77798;SDS011;66989;50.426;15.352;2024-03-08T08:47:22;20.48;;;12.10;;
77798;SDS011;66989;50.426;15.352;2024-03-08T08:49:48;18.60;;;11.20;;
77798;SDS011;66989;50.426;15.352;2024-03-08T08:52:15;24.65;;;11.65;;
77798;SDS011;66989;50.426;15.352;2024-03-08T08:54:41;20.20;;;11.57;;
77798;SDS011;66989;50.426;15.352;2024-03-08T08:57:07;19.05;;;11.43;;
77798;SDS011;66989;50.426;15.352;2024-03-08T08:59:36;18.52;;;11.35;;
77798;SDS011;66989;50.426;15.352;2024-03-08T09:02:02;18.20;;;11.43;;
77798;SDS011;66989;50.426;15.352;2024-03-08T09:04:29;20.63;;;13.82;;
77798;SDS011;66989;50.426;15.352;2024-03-08T09:06:55;19.63;;;13.23;;
77798;SDS011;66989;50.426;15.352;2024-03-08T09:09:21;21.40;;;13.38;;
77798;SDS011;66989;50.426;15.352;2024-03-08T09:11:47;20.00;;;13.25;;
77798;SDS011;66989;50.426;15.352;2024-03-08T09:14:12;23.17;;;14.85;;
77798;SDS011;66989;50.426;15.352;2024-03-08T09:16:39;20.10;;;11.85;;
77798;SDS011;66989;50.426;15.352;2024-03-08T09:19:04;21.25;;;13.88;;
77798;SDS011;66989;50.426;15.352;2024-03-08T09:21:31;25.20;;;14.48;;
77798;SDS011;66989;50.426;15.352;2024-03-08T09:23:57;20.80;;;13.95;;
77798;SDS011;66989;50.426;15.352;2024-03-08T09:26:24;20.83;;;13.30;;
77798;SDS011;66989;50.426;15.352;2024-03-08T09:28:49;18.52;;;11.95;;
77798;SDS011;66989;50.426;15.352;2024-03-08T09:31:14;18.70;;;12.35;;
77798;SDS011;66989;50.426;15.352;2024-03-08T09:33:41;20.20;;;12.55;;
77798;SDS011;66989;50.426;15.352;2024-03-08T09:36:07;19.25;;;12.63;;
77798;SDS011;66989;50.426;15.352;2024-03-08T09:38:33;22.35;;;12.98;;
77798;SDS011;66989;50.426;15.352;2024-03-08T09:41:01;20.92;;;13.57;;
77798;SDS011;66989;50.426;15.352;2024-03-08T09:43:29;20.17;;;12.18;;
77798;SDS011;66989;50.426;15.352;2024-03-08T09:45:55;22.02;;;13.45;;
77798;SDS011;66989;50.426;15.352;2024-03-08T09:48:22;19.85;;;13.05;;
77798;SDS011;66989;50.426;15.352;2024-03-08T09:50:48;18.70;;;13.15;;
77798;SDS011;66989;50.426;15.352;2024-03-08T09:53:14;18.10;;;13.75;;
77798;SDS011;66989;50.426;15.352;2024-03-08T09:55:40;19.48;;;13.10;;
77798;SDS011;66989;50.426;15.352;2024-03-08T09:58:10;18.77;;;12.95;;
77798;SDS011;66989;50.426;15.352;2024-03-08T10:00:43;21.42;;;15.13;;
77798;SDS011;66989;50.426;15.352;2024-03-08T10:03:08;18.20;;;13.63;;
77798;SDS011;66989;50.426;15.352;2024-03-08T10:05:34;17.45;;;13.50;;
77798;SDS011;66989;50.426;15.352;2024-03-08T10:08:01;19.48;;;13.00;;
77798;SDS011;66989;50.426;15.352;2024-03-08T10:10:27;18.45;;;12.57;;
77798;SDS011;66989;50.426;15.352;2024-03-08T10:12:52;18.73;;;13.13;;
77798;SDS011;66989;50.426;15.352;2024-03-08T10:15:17;15.35;;;11.27;;
77798;SDS011;66989;50.426;15.352;2024-03-08T10:17:43;15.15;;;10.38;;
77798;SDS011;66989;50.426;15.352;2024-03-08T10:20:15;15.80;;;10.23;;
77798;SDS011;66989;50.426;15.352;2024-03-08T10:22:43;14.70;;;10.48;;
77798;SDS011;66989;50.426;15.352;2024-03-08T10:25:12;15.52;;;10.38;;
77798;SDS011;66989;50.426;15.352;2024-03-08T10:27:38;12.88;;;9.50;;
77798;SDS011;66989;50.426;15.352;2024-03-08T10:30:14;16.23;;;12.32;;
77798;SDS011;66989;50.426;15.352;2024-03-08T10:32:42;15.98;;;11.50;;
77798;SDS011;66989;50.426;15.352;2024-03-08T10:37:33;13.07;;;9.13;;
77798;SDS011;66989;50.426;15.352;2024-03-08T10:40:07;13.18;;;9.30;;
77798;SDS011;66989;50.426;15.352;2024-03-08T10:42:46;14.02;;;10.77;;
77798;SDS011;66989;50.426;15.352;2024-03-08T10:45:19;13.88;;;9.23;;
77798;SDS011;66989;50.426;15.352;2024-03-08T10:47:49;14.10;;;9.15;;
77798;SDS011;66989;50.426;15.352;2024-03-08T10:50:29;13.18;;;10.00;;
77798;SDS011;66989;50.426;15.352;2024-03-08T10:52:59;15.35;;;10.95;;
77798;SDS011;66989;50.426;15.352;2024-03-08T10:55:26;15.25;;;12.07;;
77798;SDS011;66989;50.426;15.352;2024-03-08T10:57:53;14.70;;;11.38;;
77798;SDS011;66989;50.426;15.352;2024-03-08T11:00:19;15.10;;;11.25;;
77798;SDS011;66989;50.426;15.352;2024-03-08T11:02:52;15.40;;;12.93;;
77798;SDS011;66989;50.426;15.352;2024-03-08T11:05:31;13.65;;;10.85;;
77798;SDS011;66989;50.426;15.352;2024-03-08T11:08:20;14.35;;;10.35;;
77798;SDS011;66989;50.426;15.352;2024-03-08T11:19:01;16.17;;;11.52;;
77798;SDS011;66989;50.426;15.352;2024-03-08T11:21:38;16.05;;;11.50;;
77798;SDS011;66989;50.426;15.352;2024-03-08T11:24:11;14.07;;;11.07;;
77798;SDS011;66989;50.426;15.352;2024-03-08T11:26:41;14.45;;;11.35;;
77798;SDS011;66989;50.426;15.352;2024-03-08T11:32:10;16.48;;;12.73;;
77798;SDS011;66989;50.426;15.352;2024-03-08T11:34:41;14.23;;;12.35;;
77798;SDS011;66989;50.426;15.352;2024-03-08T11:37:11;14.25;;;10.52;;
77798;SDS011;66989;50.426;15.352;2024-03-08T11:39:47;17.23;;;13.25;;
77798;SDS011;66989;50.426;15.352;2024-03-08T11:42:17;15.77;;;12.18;;
77798;SDS011;66989;50.426;15.352;2024-03-08T11:44:44;18.33;;;13.55;;
77798;SDS011;66989;50.426;15.352;2024-03-08T11:47:13;15.75;;;13.40;;
77798;SDS011;66989;50.426;15.352;2024-03-08T11:52:10;19.27;;;12.15;;
77798;SDS011;66989;50.426;15.352;2024-03-08T11:54:38;17.00;;;12.48;;
77798;SDS011;66989;50.426;15.352;2024-03-08T11:57:05;20.98;;;12.13;;
77798;SDS011;66989;50.426;15.352;2024-03-08T11:59:31;18.85;;;13.73;;
77798;SDS011;66989;50.426;15.352;2024-03-08T12:02:04;17.20;;;13.90;;
77798;SDS011;66989;50.426;15.352;2024-03-08T12:04:31;17.40;;;13.02;;
77798;SDS011;66989;50.426;15.352;2024-03-08T12:07:00;18.15;;;13.60;;
77798;SDS011;66989;50.426;15.352;2024-03-08T12:09:34;21.70;;;13.73;;
77798;SDS011;66989;50.426;15.352;2024-03-08T12:12:01;18.15;;;12.35;;
77798;SDS011;66989;50.426;15.352;2024-03-08T12:14:29;19.05;;;13.60;;
77798;SDS011;66989;50.426;15.352;2024-03-08T12:16:55;16.90;;;12.52;;
77798;SDS011;66989;50.426;15.352;2024-03-08T12:19:20;22.27;;;12.75;;
77798;SDS011;66989;50.426;15.352;2024-03-08T12:21:46;18.40;;;11.32;;
77798;SDS011;66989;50.426;15.352;2024-03-08T12:24:16;18.63;;;11.50;;
77798;SDS011;66989;50.426;15.352;2024-03-08T12:26:45;19.25;;;10.15;;
77798;SDS011;66989;50.426;15.352;2024-03-08T12:29:20;13.88;;;9.02;;
77798;SDS011;66989;50.426;15.352;2024-03-08T12:31:58;14.00;;;9.85;;
77798;SDS011;66989;50.426;15.352;2024-03-08T12:34:26;16.27;;;9.18;;
77798;SDS011;66989;50.426;15.352;2024-03-08T12:36:53;16.48;;;9.95;;
77798;SDS011;66989;50.426;15.352;2024-03-08T12:39:20;16.60;;;12.02;;
77798;SDS011;66989;50.426;15.352;2024-03-08T12:41:53;18.58;;;10.32;;
77798;SDS011;66989;50.426;15.352;2024-03-08T12:44:19;15.05;;;11.65;;
77798;SDS011;66989;50.426;15.352;2024-03-08T12:46:46;19.20;;;13.43;;
77798;SDS011;66989;50.426;15.352;2024-03-08T12:49:13;14.30;;;9.50;;
77798;SDS011;66989;50.426;15.352;2024-03-08T12:51:42;16.08;;;10.60;;
77798;SDS011;66989;50.426;15.352;2024-03-08T12:54:08;19.35;;;12.93;;
77798;SDS011;66989;50.426;15.352;2024-03-08T12:56:35;17.30;;;10.43;;
77798;SDS011;66989;50.426;15.352;2024-03-08T12:59:02;18.77;;;10.35;;
77798;SDS011;66989;50.426;15.352;2024-03-08T13:01:31;16.17;;;11.25;;
77798;SDS011;66989;50.426;15.352;2024-03-08T13:03:57;16.35;;;10.77;;
77798;SDS011;66989;50.426;15.352;2024-03-08T13:06:31;15.60;;;9.50;;
77798;SDS011;66989;50.426;15.352;2024-03-08T13:08:56;17.85;;;10.00;;
77798;SDS011;66989;50.426;15.352;2024-03-08T13:11:23;17.58;;;11.82;;
77798;SDS011;66989;50.426;15.352;2024-03-08T13:13:49;16.98;;;10.57;;
77798;SDS011;66989;50.426;15.352;2024-03-08T13:16:15;14.68;;;11.05;;
77798;SDS011;66989;50.426;15.352;2024-03-08T13:18:43;15.60;;;9.90;;
77798;SDS011;66989;50.426;15.352;2024-03-08T13:21:11;14.27;;;8.80;;
77798;SDS011;66989;50.426;15.352;2024-03-08T13:23:39;13.75;;;10.15;;
77798;SDS011;66989;50.426;15.352;2024-03-08T13:26:06;13.15;;;9.30;;
77798;SDS011;66989;50.426;15.352;2024-03-08T13:28:32;14.27;;;8.95;;
77798;SDS011;66989;50.426;15.352;2024-03-08T13:31:02;13.35;;;8.68;;
77798;SDS011;66989;50.426;15.352;2024-03-08T13:33:31;16.42;;;9.20;;
77798;SDS011;66989;50.426;15.352;2024-03-08T13:36:00;12.98;;;8.45;;
77798;SDS011;66989;50.426;15.352;2024-03-08T13:38:26;13.15;;;8.75;;
77798;SDS011;66989;50.426;15.352;2024-03-08T13:40:51;12.25;;;9.07;;
77798;SDS011;66989;50.426;15.352;2024-03-08T13:43:17;10.43;;;8.90;;
77798;SDS011;66989;50.426;15.352;2024-03-08T13:45:42;11.05;;;7.97;;
77798;SDS011;66989;50.426;15.352;2024-03-08T13:48:08;13.18;;;8.13;;
77798;SDS011;66989;50.426;15.352;2024-03-08T13:50:37;11.40;;;8.40;;
77798;SDS011;66989;50.426;15.352;2024-03-08T13:53:03;11.68;;;8.27;;
77798;SDS011;66989;50.426;15.352;2024-03-08T13:55:29;11.40;;;8.88;;
77798;SDS011;66989;50.426;15.352;2024-03-08T13:57:55;12.07;;;8.40;;
77798;SDS011;66989;50.426;15.352;2024-03-08T14:02:49;10.93;;;7.93;;
77798;SDS011;66989;50.426;15.352;2024-03-08T14:05:15;12.60;;;8.10;;
77798;SDS011;66989;50.426;15.352;2024-03-08T14:07:41;11.30;;;8.18;;
77798;SDS011;66989;50.426;15.352;2024-03-08T14:10:06;12.10;;;8.25;;
77798;SDS011;66989;50.426;15.352;2024-03-08T14:12:34;13.82;;;8.25;;
77798;SDS011;66989;50.426;15.352;2024-03-08T14:15:00;11.40;;;7.88;;
77798;SDS011;66989;50.426;15.352;2024-03-08T14:17:26;13.88;;;8.90;;
77798;SDS011;66989;50.426;15.352;2024-03-08T14:19:53;14.43;;;9.18;;
77798;SDS011;66989;50.426;15.352;2024-03-08T14:22:19;13.15;;;8.98;;
77798;SDS011;66989;50.426;15.352;2024-03-08T14:24:45;12.68;;;9.35;;
77798;SDS011;66989;50.426;15.352;2024-03-08T14:27:10;11.75;;;7.80;;
77798;SDS011;66989;50.426;15.352;2024-03-08T14:29:37;12.65;;;7.63;;
77798;SDS011;66989;50.426;15.352;2024-03-08T14:32:03;11.65;;;8.38;;